Time;durP1;ratioP1;P1;durP2;ratioP2;P2;SDS_P1;SDS_P2;PMS_P1;PMS_P2;Temp;Humidity;BMP_temperature;BMP_pressure;BME280_temperature;BME280_humidity;BME280_pressure;Samples;Min_cycle;Max_cycle;Signal;HPM_P1;HPM_P2
2022/12/23 00:01:11;;;;;;;40.38;26.02;;;12.90;99.90;;;;;;4591785;19;20017;-31
2022/12/23 00:02:43;;;;;;;35.83;26.23;;;12.90;99.90;;;;;;4590138;19;20044;-30
2022/12/23 00:04:14;;;;;;;33.42;24.60;;;12.90;99.90;;;;;;4591570;19;20054;-30
2022/12/23 00:05:45;;;;;;;36.05;26.35;;;12.90;99.90;;;;;;4593024;19;20345;-31
2022/12/23 00:07:17;;;;;;;32.80;24.50;;;12.90;99.90;;;;;;4592660;19;20007;-30
2022/12/23 00:08:48;;;;;;;31.73;23.70;;;12.90;99.90;;;;;;4592341;19;20418;-28
2022/12/23 00:10:19;;;;;;;34.85;26.90;;;12.90;99.90;;;;;;4592308;19;20464;-30
2022/12/23 00:15:43;;;;;;;26.67;21.00;;;12.90;99.90;;;;;;4590435;19;20006;-31
2022/12/23 00:17:15;;;;;;;28.73;22.77;;;12.90;99.90;;;;;;4590598;19;20014;-31
2022/12/23 00:18:46;;;;;;;41.92;34.00;;;12.90;99.90;;;;;;4589818;19;20093;-31
2022/12/23 00:20:17;;;;;;;78.38;62.63;;;12.90;99.90;;;;;;4590388;19;20015;-30
2022/12/23 00:21:48;;;;;;;115.93;82.43;;;12.90;99.90;;;;;;4590019;19;20014;-29
2022/12/23 00:23:19;;;;;;;106.65;69.28;;;12.90;99.90;;;;;;4589950;19;20086;-29
2022/12/23 00:24:50;;;;;;;64.78;37.67;;;12.90;99.90;;;;;;4589899;19;20006;-29
2022/12/23 00:26:23;;;;;;;43.97;26.13;;;12.90;99.90;;;;;;4590202;19;20358;-30
2022/12/23 00:28:00;;;;;;;46.20;26.73;;;12.90;99.90;;;;;;4589955;19;20018;-31
2022/12/23 00:29:31;;;;;;;35.40;23.93;;;12.90;99.90;;;;;;4589652;19;20011;-29
2022/12/23 00:31:05;;;;;;;32.30;22.70;;;12.90;99.90;;;;;;4589779;19;20472;-29
2022/12/23 00:32:36;;;;;;;35.90;22.93;;;12.90;99.90;;;;;;4589779;19;20488;-31
2022/12/23 00:34:08;;;;;;;34.13;23.60;;;12.90;99.90;;;;;;4589861;19;20021;-32
2022/12/23 00:35:39;;;;;;;42.65;27.45;;;12.90;99.90;;;;;;4589625;19;20041;-29
2022/12/23 00:37:10;;;;;;;39.80;27.17;;;12.90;99.90;;;;;;4589551;19;20368;-29
2022/12/23 00:44:10;;;;;;;26.80;20.27;;;12.90;99.90;;;;;;4589331;19;20034;-29
2022/12/23 00:45:42;;;;;;;26.17;19.63;;;12.90;99.90;;;;;;4589623;19;20015;-31
2022/12/23 00:49:40;;;;;;;25.17;19.48;;;12.90;99.90;;;;;;4589524;19;20018;-33
2022/12/23 00:50:54;;;;;;;28.40;22.20;;;12.90;99.90;;;;;;4590892;19;20033;-31
2022/12/23 00:52:26;;;;;;;23.02;18.58;;;12.90;99.90;;;;;;4589163;19;20042;-32
2022/12/23 00:53:57;;;;;;;21.30;18.60;;;12.90;99.90;;;;;;4591802;19;20027;-29
2022/12/23 00:55:28;;;;;;;25.45;19.83;;;12.90;99.90;;;;;;4590692;19;20019;-31
2022/12/23 00:56:59;;;;;;;24.80;20.13;;;12.90;99.90;;;;;;4591635;19;20112;-31
2022/12/23 00:58:30;;;;;;;23.52;20.05;;;12.90;99.90;;;;;;4591328;19;20014;-33
2022/12/23 01:00:02;;;;;;;22.80;19.67;;;12.90;99.90;;;;;;4591531;19;20010;-29
2022/12/23 01:07:02;;;;;;;18.43;16.07;;;12.80;99.90;;;;;;4590778;19;20494;-33
2022/12/23 01:08:34;;;;;;;17.23;15.32;;;12.80;99.90;;;;;;4590132;19;20349;-30
2022/12/23 01:10:05;;;;;;;17.42;15.30;;;12.80;99.90;;;;;;4591388;19;20011;-29
2022/12/23 01:11:36;;;;;;;20.63;17.25;;;12.80;99.90;;;;;;4591601;19;20077;-29
2022/12/23 01:13:08;;;;;;;19.65;17.60;;;12.80;99.90;;;;;;4591216;19;20010;-29
2022/12/23 01:14:39;;;;;;;33.88;30.40;;;12.80;99.90;;;;;;4591350;19;20010;-31
2022/12/23 01:16:10;;;;;;;63.38;51.60;;;12.80;99.90;;;;;;4591232;19;20010;-28
2022/12/23 01:17:41;;;;;;;69.10;48.08;;;12.80;99.90;;;;;;4591352;19;20006;-32
2022/12/23 01:19:13;;;;;;;41.95;28.33;;;12.80;99.90;;;;;;4591027;19;20015;-29
2022/12/23 01:20:44;;;;;;;33.60;23.42;;;12.80;99.90;;;;;;4591408;19;20014;-30
2022/12/23 01:22:15;;;;;;;24.98;18.48;;;12.80;99.90;;;;;;4591735;19;20430;-29
2022/12/23 01:23:46;;;;;;;19.88;15.93;;;12.80;99.90;;;;;;4590834;19;20039;-28
2022/12/23 01:25:18;;;;;;;20.17;16.27;;;12.80;99.90;;;;;;4590988;19;20024;-31
2022/12/23 01:26:49;;;;;;;18.73;15.20;;;12.80;99.90;;;;;;4591414;19;20680;-30
2022/12/23 01:28:20;;;;;;;20.15;15.13;;;12.80;99.90;;;;;;4590774;19;20086;-33
2022/12/23 01:29:51;;;;;;;22.48;16.83;;;12.80;99.90;;;;;;4590945;19;20033;-31
2022/12/23 01:31:23;;;;;;;18.52;15.55;;;12.80;99.90;;;;;;4590946;19;20006;-29
2022/12/23 01:32:54;;;;;;;22.43;17.40;;;12.80;99.90;;;;;;4590019;19;20011;-29
2022/12/23 01:34:26;;;;;;;19.08;14.30;;;12.80;99.90;;;;;;4590565;19;20011;-29
2022/12/23 01:36:05;;;;;;;18.65;15.57;;;12.80;99.90;;;;;;4589446;19;20075;-31
2022/12/23 01:37:36;;;;;;;17.63;15.17;;;12.80;99.90;;;;;;4590157;19;20531;-29
2022/12/23 01:39:07;;;;;;;17.05;14.38;;;12.80;99.90;;;;;;4590806;19;20389;-31
2022/12/23 01:40:42;;;;;;;17.88;15.13;;;12.80;99.90;;;;;;4590987;19;20101;-30
2022/12/23 01:44:45;;;;;;;18.63;16.50;;;12.80;99.90;;;;;;4589527;19;20010;-29
2022/12/23 01:46:16;;;;;;;19.17;16.07;;;12.80;99.90;;;;;;4590615;19;20014;-30
2022/12/23 01:47:48;;;;;;;20.48;16.20;;;12.80;99.90;;;;;;4590128;19;20006;-31
2022/12/23 01:49:20;;;;;;;19.30;15.77;;;12.80;99.90;;;;;;4590984;19;20074;-31
2022/12/23 01:51:03;;;;;;;16.95;14.68;;;12.80;99.90;;;;;;4590203;19;20468;-31
2022/12/23 01:52:46;;;;;;;16.87;14.73;;;12.80;99.90;;;;;;4589083;19;20011;-30
2022/12/23 01:54:17;;;;;;;18.83;14.23;;;12.80;99.90;;;;;;4588957;19;20038;-31
2022/12/23 01:55:54;;;;;;;16.48;12.77;;;12.80;99.90;;;;;;4590255;19;20019;-29
2022/12/23 01:57:26;;;;;;;16.80;13.20;;;12.80;99.90;;;;;;4589118;19;20353;-29
2022/12/23 01:59:02;;;;;;;15.35;12.52;;;12.80;99.90;;;;;;4588872;19;20018;-29
2022/12/23 02:04:16;;;;;;;17.27;12.03;;;12.80;99.90;;;;;;4589143;19;20007;-29
2022/12/23 02:05:47;;;;;;;15.97;12.67;;;12.80;99.90;;;;;;4589111;19;20353;-29
2022/12/23 02:09:16;;;;;;;17.00;14.47;;;12.80;99.90;;;;;;4589069;19;20099;-31
2022/12/23 02:10:58;;;;;;;20.37;18.10;;;12.80;99.90;;;;;;4590335;19;20014;-31
2022/12/23 02:12:53;;;;;;;25.17;21.38;;;12.80;99.90;;;;;;4589064;19;20011;-28
2022/12/23 02:16:50;;;;;;;14.57;12.67;;;12.70;99.90;;;;;;4588927;19;20019;-35
2022/12/23 02:18:35;;;;;;;16.77;14.17;;;12.80;99.90;;;;;;4589033;19;20023;-30
2022/12/23 02:20:28;;;;;;;15.23;13.63;;;12.70;99.90;;;;;;4588745;19;20020;-29
2022/12/23 02:22:29;;;;;;;14.98;13.43;;;12.70;99.90;;;;;;4589742;19;20015;-30
2022/12/23 02:24:54;;;;;;;19.43;15.07;;;12.70;99.90;;;;;;4588321;19;20014;-28
2022/12/23 02:26:37;;;;;;;21.73;16.73;;;12.70;99.90;;;;;;4587696;19;20078;-32
2022/12/23 02:28:45;;;;;;;19.43;16.07;;;12.70;99.90;;;;;;4587004;19;20006;-33
2022/12/23 02:30:58;;;;;;;17.87;14.30;;;12.70;99.90;;;;;;4587498;19;20084;-31
2022/12/23 02:32:56;;;;;;;14.17;12.67;;;12.70;99.90;;;;;;4587541;19;20082;-30
2022/12/23 02:34:51;;;;;;;15.77;13.27;;;12.70;99.90;;;;;;4587410;19;20074;-30
2022/12/23 02:36:45;;;;;;;14.70;13.07;;;12.70;99.90;;;;;;4587231;19;20101;-28
2022/12/23 02:38:25;;;;;;;16.40;12.60;;;12.70;99.90;;;;;;4587348;19;20092;-31
2022/12/23 02:40:28;;;;;;;14.37;12.87;;;12.70;99.90;;;;;;4587394;19;20016;-31
2022/12/23 02:42:19;;;;;;;13.93;11.97;;;12.70;99.90;;;;;;4587043;19;20439;-31
2022/12/23 02:43:58;;;;;;;14.15;12.20;;;12.70;99.90;;;;;;4587416;19;20043;-31
2022/12/23 02:45:36;;;;;;;15.73;13.17;;;12.70;99.90;;;;;;4587190;19;20603;-30
2022/12/23 02:47:12;;;;;;;12.60;11.30;;;12.70;99.90;;;;;;4587103;19;20387;-30
2022/12/23 02:48:51;;;;;;;14.80;12.57;;;12.70;99.90;;;;;;4586025;19;20044;-30
2022/12/23 02:50:28;;;;;;;13.50;12.20;;;12.70;99.90;;;;;;4587346;19;20007;-31
2022/12/23 02:52:02;;;;;;;11.70;10.50;;;12.70;99.90;;;;;;4587184;19;20050;-30
2022/12/23 02:53:36;;;;;;;13.03;11.67;;;12.70;99.90;;;;;;4586885;19;20017;-29
2022/12/23 02:55:11;;;;;;;12.70;11.37;;;12.70;99.90;;;;;;4586877;19;20011;-31
2022/12/23 02:56:44;;;;;;;24.13;21.73;;;12.70;99.90;;;;;;4587219;19;20032;-29
2022/12/23 02:58:16;;;;;;;25.80;23.20;;;12.80;99.90;;;;;;4586929;19;20490;-29
2022/12/23 02:59:49;;;;;;;27.63;24.57;;;12.70;99.90;;;;;;4586782;19;20011;-28
2022/12/23 03:01:21;;;;;;;39.37;35.17;;;12.70;99.90;;;;;;4586956;19;20070;-29
2022/12/23 03:02:52;;;;;;;34.38;29.75;;;12.70;99.90;;;;;;4586889;19;20006;-29
2022/12/23 03:04:23;;;;;;;22.05;19.70;;;12.70;99.90;;;;;;4586438;19;20055;-32
2022/12/23 03:05:55;;;;;;;16.02;13.82;;;12.70;99.90;;;;;;4586753;19;20006;-30
2022/12/23 03:07:31;;;;;;;14.65;12.25;;;12.70;99.90;;;;;;4586244;19;20092;-29
2022/12/23 03:09:03;;;;;;;12.67;11.37;;;12.80;99.90;;;;;;4587140;19;20033;-29
2022/12/23 03:11:05;;;;;;;13.23;11.82;;;12.70;99.90;;;;;;4587058;19;20429;-30
2022/12/23 03:12:56;;;;;;;13.30;11.90;;;12.70;99.90;;;;;;4586574;19;20010;-28
2022/12/23 03:14:54;;;;;;;12.93;10.87;;;12.70;99.90;;;;;;4587156;19;20020;-31
2022/12/23 03:16:27;;;;;;;12.07;10.73;;;12.70;99.90;;;;;;4591647;19;20018;-30
2022/12/23 03:18:12;;;;;;;13.60;12.20;;;12.70;99.90;;;;;;4591219;19;20014;-30
2022/12/23 03:19:52;;;;;;;12.47;11.17;;;12.70;99.90;;;;;;4591976;19;20460;-30
2022/12/23 03:21:41;;;;;;;14.20;11.80;;;12.70;99.90;;;;;;4592774;19;20440;-30
2022/12/23 03:23:33;;;;;;;13.40;12.00;;;12.70;99.90;;;;;;4592859;19;20010;-31
2022/12/23 03:25:16;;;;;;;12.63;11.32;;;12.70;99.90;;;;;;4593469;19;20018;-30
2022/12/23 03:27:07;;;;;;;13.30;10.97;;;12.70;99.90;;;;;;4593409;19;20468;-30
2022/12/23 03:28:57;;;;;;;13.68;12.18;;;12.70;99.90;;;;;;4591717;19;20014;-30
2022/12/23 03:30:29;;;;;;;13.43;12.03;;;12.70;99.90;;;;;;4592041;19;20011;-29
2022/12/23 03:32:00;;;;;;;12.85;11.52;;;12.70;99.90;;;;;;4592660;19;20011;-29
2022/12/23 03:33:34;;;;;;;13.10;11.43;;;12.70;99.90;;;;;;4592586;19;20007;-32
2022/12/23 03:35:06;;;;;;;13.27;11.90;;;12.80;99.90;;;;;;4591889;19;20028;-30
2022/12/23 03:36:54;;;;;;;14.52;12.30;;;12.80;99.90;;;;;;4592393;19;20073;-30
2022/12/23 03:38:25;;;;;;;14.90;12.80;;;12.80;99.90;;;;;;4592211;19;20520;-28
2022/12/23 03:40:07;;;;;;;13.57;12.18;;;12.70;99.90;;;;;;4591885;19;20011;-30
2022/12/23 03:41:41;;;;;;;15.30;12.37;;;12.70;99.90;;;;;;4592274;19;20010;-30
2022/12/23 03:43:19;;;;;;;14.50;12.40;;;12.70;99.90;;;;;;4591634;19;20346;-31
2022/12/23 03:44:50;;;;;;;13.83;12.00;;;12.70;99.90;;;;;;4591864;19;20007;-31
2022/12/23 03:46:46;;;;;;;12.15;10.93;;;12.70;99.90;;;;;;4591793;19;20014;-30
2022/12/23 03:48:47;;;;;;;14.37;11.53;;;12.70;99.90;;;;;;4590183;19;20029;-29
2022/12/23 03:50:19;;;;;;;11.43;10.23;;;12.70;99.90;;;;;;4590465;19;20343;-31
2022/12/23 03:51:57;;;;;;;11.80;10.43;;;12.70;99.90;;;;;;4590686;19;20003;-31
2022/12/23 03:53:37;;;;;;;12.53;10.43;;;12.70;99.90;;;;;;4590757;19;20357;-28
2022/12/23 03:55:13;;;;;;;12.43;10.37;;;12.70;99.90;;;;;;4590495;19;20074;-29
2022/12/23 03:56:50;;;;;;;11.97;10.57;;;12.70;99.90;;;;;;4591008;19;20006;-29
2022/12/23 03:58:30;;;;;;;12.23;10.27;;;12.70;99.90;;;;;;4590660;19;20019;-29
2022/12/23 04:00:01;;;;;;;11.60;10.40;;;12.70;99.90;;;;;;4589983;19;20108;-32
2022/12/23 04:01:44;;;;;;;13.25;10.77;;;12.70;99.90;;;;;;4592708;19;20471;-32
2022/12/23 04:03:30;;;;;;;10.70;9.53;;;12.70;99.90;;;;;;4590883;19;20345;-30
2022/12/23 04:05:21;;;;;;;15.03;12.43;;;12.70;99.90;;;;;;4589138;19;20033;-30
2022/12/23 04:07:54;;;;;;;33.27;22.43;;;12.70;99.90;;;;;;4590344;19;20035;-30
2022/12/23 04:09:26;;;;;;;32.97;20.63;;;12.70;99.90;;;;;;4590252;19;20383;-32
2022/12/23 04:10:57;;;;;;;32.43;22.07;;;12.70;99.90;;;;;;4590425;19;20011;-28
2022/12/23 04:12:29;;;;;;;28.25;21.73;;;12.70;99.90;;;;;;4589809;19;20018;-29
2022/12/23 04:14:00;;;;;;;36.55;28.23;;;12.70;99.90;;;;;;4590192;19;20493;-28
2022/12/23 04:15:31;;;;;;;45.90;35.63;;;12.70;99.90;;;;;;4590444;19;20021;-30
2022/12/23 04:17:02;;;;;;;37.78;30.95;;;12.70;99.90;;;;;;4590331;19;20508;-29
2022/12/23 04:18:34;;;;;;;23.25;19.92;;;12.70;99.90;;;;;;4589754;19;20074;-28
2022/12/23 04:20:06;;;;;;;15.70;14.07;;;12.70;99.90;;;;;;4589762;19;20354;-29
2022/12/23 04:21:37;;;;;;;13.53;11.10;;;12.70;99.90;;;;;;4590692;19;20040;-29
2022/12/23 04:23:09;;;;;;;;;;;12.70;99.90;;;;;;4591004;19;20018;-30
2022/12/23 04:24:40;;;;;;;10.17;9.10;;;12.70;99.90;;;;;;4589971;19;20378;-31
2022/12/23 04:26:11;;;;;;;10.80;9.05;;;12.70;99.90;;;;;;4589785;19;20007;-30
2022/12/23 04:27:42;;;;;;;11.43;10.02;;;12.70;99.90;;;;;;4589497;19;20021;-32
2022/12/23 04:29:13;;;;;;;10.18;8.98;;;12.70;99.90;;;;;;4589679;19;20346;-31
2022/12/23 04:30:44;;;;;;;10.23;8.60;;;12.70;99.90;;;;;;4589627;19;20019;-29
2022/12/23 04:32:16;;;;;;;11.43;9.57;;;12.70;99.90;;;;;;4590007;19;20014;-32
2022/12/23 04:33:47;;;;;;;10.13;8.90;;;12.70;99.90;;;;;;4589683;19;20062;-29
2022/12/23 04:35:18;;;;;;;9.65;8.63;;;12.70;99.90;;;;;;4589557;19;20066;-29
2022/12/23 04:36:50;;;;;;;10.20;9.10;;;12.70;99.90;;;;;;4589893;19;20077;-31
2022/12/23 04:38:21;;;;;;;11.07;9.15;;;12.70;99.90;;;;;;4589817;19;20079;-30
2022/12/23 04:39:52;;;;;;;10.23;9.15;;;12.70;99.90;;;;;;4589861;19;20016;-29
2022/12/23 04:41:23;;;;;;;11.07;9.68;;;12.70;99.90;;;;;;4589434;19;20017;-30
2022/12/23 04:42:54;;;;;;;11.02;9.90;;;12.70;99.90;;;;;;4589614;19;20335;-29
2022/12/23 04:44:25;;;;;;;11.52;10.30;;;12.70;99.90;;;;;;4589817;19;20009;-32
2022/12/23 04:45:57;;;;;;;12.55;11.30;;;12.70;99.90;;;;;;4590135;19;20078;-28
2022/12/23 04:47:28;;;;;;;11.20;10.00;;;12.70;99.90;;;;;;4591754;19;20017;-30
2022/12/23 04:48:59;;;;;;;12.43;10.48;;;12.70;99.90;;;;;;4591011;19;20017;-29
2022/12/23 04:50:30;;;;;;;12.95;11.30;;;12.70;99.90;;;;;;4592249;19;20014;-29
2022/12/23 04:52:01;;;;;;;13.75;11.93;;;12.70;99.90;;;;;;4591607;19;20010;-29
2022/12/23 04:53:35;;;;;;;15.73;12.43;;;12.70;99.90;;;;;;4591607;19;20527;-30
2022/12/23 04:55:07;;;;;;;14.50;11.83;;;12.70;99.90;;;;;;4591717;19;20033;-29
2022/12/23 04:56:38;;;;;;;;;;;12.70;99.90;;;;;;4593106;19;20024;-29
2022/12/23 04:58:09;;;;;;;13.37;11.27;;;12.70;99.90;;;;;;4591180;19;19914;-31
2022/12/23 04:59:41;;;;;;;13.38;11.98;;;12.70;99.90;;;;;;4591742;19;20014;-33
2022/12/23 05:01:12;;;;;;;13.07;11.68;;;12.70;99.90;;;;;;4591737;19;20009;-31
2022/12/23 05:02:43;;;;;;;12.27;10.90;;;12.70;99.90;;;;;;4592089;19;20002;-30
2022/12/23 05:04:14;;;;;;;12.35;10.52;;;12.70;99.90;;;;;;4590952;19;20031;-29
2022/12/23 05:05:46;;;;;;;12.52;11.23;;;12.70;99.90;;;;;;4591616;19;20015;-28
2022/12/23 05:07:17;;;;;;;12.85;11.55;;;12.70;99.90;;;;;;4589724;19;20059;-29
2022/12/23 05:08:48;;;;;;;12.85;11.20;;;12.70;99.90;;;;;;4589800;19;20022;-28
2022/12/23 05:10:19;;;;;;;12.70;11.40;;;12.70;99.90;;;;;;4591417;19;20015;-32
2022/12/23 05:11:50;;;;;;;14.25;12.75;;;12.60;99.90;;;;;;4591408;19;20015;-29
2022/12/23 05:13:22;;;;;;;12.30;11.00;;;12.70;99.90;;;;;;4591847;19;20460;-31
2022/12/23 05:14:53;;;;;;;11.98;10.57;;;12.70;99.90;;;;;;4589961;19;20471;-29
2022/12/23 05:16:25;;;;;;;12.70;10.95;;;12.70;99.90;;;;;;4591069;19;20104;-30
2022/12/23 05:17:56;;;;;;;12.27;11.00;;;12.60;99.90;;;;;;4591242;19;20384;-29
2022/12/23 05:19:27;;;;;;;13.98;11.75;;;12.60;99.90;;;;;;4591339;19;20017;-30
2022/12/23 05:20:58;;;;;;;12.40;11.10;;;12.60;99.90;;;;;;4591052;19;20023;-31
2022/12/23 05:22:30;;;;;;;14.27;11.93;;;12.60;99.90;;;;;;4591394;19;20010;-29
2022/12/23 05:24:01;;;;;;;14.10;12.60;;;12.70;99.90;;;;;;4591131;19;20120;-29
2022/12/23 05:25:33;;;;;;;14.02;12.52;;;12.60;99.90;;;;;;4590874;19;20014;-32
2022/12/23 05:27:05;;;;;;;15.17;12.70;;;12.60;99.90;;;;;;4591047;19;20426;-30
2022/12/23 05:28:36;;;;;;;16.38;14.50;;;12.60;99.90;;;;;;4589922;19;20023;-29
2022/12/23 05:30:08;;;;;;;16.25;13.90;;;12.60;99.90;;;;;;4592462;19;20015;-29
2022/12/23 05:31:39;;;;;;;15.87;14.07;;;12.60;99.90;;;;;;4593070;19;20022;-28
2022/12/23 05:33:10;;;;;;;19.10;15.77;;;12.70;99.90;;;;;;4591000;19;20025;-31
2022/12/23 05:34:41;;;;;;;17.58;14.80;;;12.60;99.90;;;;;;4592323;19;20020;-28
2022/12/23 05:36:13;;;;;;;17.67;15.10;;;12.60;99.90;;;;;;4591954;19;20361;-30
2022/12/23 05:37:44;;;;;;;18.65;16.23;;;12.60;99.90;;;;;;4592395;19;20014;-28
2022/12/23 05:39:15;;;;;;;19.60;15.98;;;12.70;99.90;;;;;;4589458;19;20468;-29
2022/12/23 05:40:47;;;;;;;16.73;14.73;;;12.60;99.90;;;;;;4591137;19;20415;-31
2022/12/23 05:42:18;;;;;;;17.85;14.95;;;12.60;99.90;;;;;;4592329;19;20006;-28
2022/12/23 05:43:49;;;;;;;16.15;13.57;;;12.60;99.90;;;;;;4592055;19;20017;-28
2022/12/23 05:45:21;;;;;;;15.73;13.77;;;12.70;99.90;;;;;;4591485;19;20077;-30
2022/12/23 05:46:52;;;;;;;19.63;13.40;;;12.60;99.90;;;;;;4593260;19;20014;-32
2022/12/23 05:48:23;;;;;;;18.15;15.48;;;12.60;99.90;;;;;;4591099;19;20402;-28
2022/12/23 05:49:55;;;;;;;17.00;14.38;;;12.70;99.90;;;;;;4592461;19;20092;-31
2022/12/23 05:51:26;;;;;;;16.45;14.75;;;12.60;99.90;;;;;;4591396;19;20486;-28
2022/12/23 05:52:57;;;;;;;16.63;14.18;;;12.70;99.90;;;;;;4593771;19;20041;-29
2022/12/23 05:54:28;;;;;;;16.65;14.68;;;12.70;99.90;;;;;;4591935;19;20074;-30
2022/12/23 05:56:03;;;;;;;16.67;13.68;;;12.60;99.90;;;;;;4591198;19;20021;-28
2022/12/23 05:57:34;;;;;;;15.23;13.63;;;12.60;99.90;;;;;;4592820;19;20239;-29
2022/12/23 05:59:06;;;;;;;18.50;14.55;;;12.60;99.90;;;;;;4591895;19;20014;-31
2022/12/23 06:00:37;;;;;;;18.13;15.27;;;12.60;99.90;;;;;;4592304;19;20007;-29
2022/12/23 06:02:08;;;;;;;16.67;13.85;;;12.60;99.90;;;;;;4591350;19;20407;-29
2022/12/23 06:03:39;;;;;;;16.30;14.52;;;12.60;99.90;;;;;;4591452;19;20014;-32
2022/12/23 06:05:11;;;;;;;18.13;15.98;;;12.60;99.90;;;;;;4590031;19;20022;-30
2022/12/23 06:06:42;;;;;;;17.83;14.88;;;12.60;99.90;;;;;;4589542;19;20062;-28
2022/12/23 06:08:13;;;;;;;18.55;15.00;;;12.60;99.90;;;;;;4591103;19;20078;-33
2022/12/23 06:09:44;;;;;;;18.58;15.52;;;12.60;99.90;;;;;;4591482;19;20627;-29
2022/12/23 06:11:16;;;;;;;18.48;15.63;;;12.60;99.90;;;;;;4592166;19;20022;-29
2022/12/23 06:12:47;;;;;;;;;;;12.60;99.90;;;;;;4591967;19;20011;-30
2022/12/23 06:14:19;;;;;;;18.27;16.27;;;12.60;99.90;;;;;;4592408;19;20324;-30
2022/12/23 06:15:50;;;;;;;17.05;14.65;;;12.60;99.90;;;;;;4591815;19;20043;-31
2022/12/23 06:17:21;;;;;;;18.83;15.32;;;12.60;99.90;;;;;;4592286;19;20011;-29
2022/12/23 06:18:55;;;;;;;20.30;15.32;;;12.60;99.90;;;;;;4591132;19;20484;-33
2022/12/23 06:20:26;;;;;;;17.87;15.97;;;12.60;99.90;;;;;;4590587;19;20018;-31
2022/12/23 06:21:58;;;;;;;18.80;15.77;;;12.60;99.90;;;;;;4592672;19;20014;-28
2022/12/23 06:23:29;;;;;;;17.75;15.40;;;12.60;99.90;;;;;;4588296;19;20030;-30
2022/12/23 06:25:00;;;;;;;17.67;15.77;;;12.60;99.90;;;;;;4590896;19;20007;-29
2022/12/23 06:26:33;;;;;;;;;;;12.60;99.90;;;;;;4590894;19;20014;-31
2022/12/23 06:28:06;;;;;;;18.95;16.05;;;12.60;99.90;;;;;;4591219;19;20385;-33
2022/12/23 06:29:37;;;;;;;17.07;15.27;;;12.60;99.90;;;;;;4591205;19;20014;-30
2022/12/23 06:31:09;;;;;;;17.50;15.23;;;12.60;99.90;;;;;;4590623;19;20019;-27
2022/12/23 06:32:40;;;;;;;19.60;16.25;;;12.60;99.90;;;;;;4592215;19;20032;-31
2022/12/23 06:34:11;;;;;;;20.65;17.23;;;12.70;99.90;;;;;;4590328;19;20018;-31
2022/12/23 06:35:43;;;;;;;19.17;17.17;;;12.70;99.90;;;;;;4588961;19;20018;-28
2022/12/23 06:37:14;;;;;;;19.98;17.88;;;12.70;99.90;;;;;;4592341;19;20026;-29
2022/12/23 06:38:45;;;;;;;20.33;18.10;;;12.70;99.90;;;;;;4591625;19;20018;-28
2022/12/23 06:40:17;;;;;;;20.40;17.08;;;12.70;99.90;;;;;;4589650;19;20040;-29
2022/12/23 06:41:48;;;;;;;21.75;17.70;;;12.70;99.90;;;;;;4591185;19;20069;-31
2022/12/23 06:43:20;;;;;;;23.52;18.00;;;12.70;99.90;;;;;;4591291;19;20038;-29
2022/12/23 06:44:51;;;;;;;21.13;18.83;;;12.70;99.90;;;;;;4592091;19;20530;-29
2022/12/23 06:46:22;;;;;;;22.05;18.95;;;12.70;99.90;;;;;;4591047;19;20042;-31
2022/12/23 06:47:53;;;;;;;22.83;18.20;;;12.70;99.90;;;;;;4588337;19;20018;-31
2022/12/23 06:49:25;;;;;;;24.05;20.08;;;12.70;99.90;;;;;;4591799;19;20092;-30
2022/12/23 06:50:56;;;;;;;23.98;20.20;;;12.70;99.90;;;;;;4594455;19;20085;-29
2022/12/23 06:52:27;;;;;;;24.65;20.13;;;12.70;99.90;;;;;;4595644;19;20010;-30
2022/12/23 06:53:59;;;;;;;23.27;20.77;;;12.70;99.90;;;;;;4595071;19;20468;-31
2022/12/23 06:55:30;;;;;;;24.55;21.30;;;12.70;99.90;;;;;;4596140;19;20014;-30
2022/12/23 06:57:01;;;;;;;24.38;20.65;;;12.70;99.90;;;;;;4592549;19;20334;-29
2022/12/23 06:58:32;;;;;;;22.77;19.30;;;12.70;99.90;;;;;;4593836;19;20014;-31
2022/12/23 07:00:04;;;;;;;23.52;20.33;;;12.70;99.90;;;;;;4594263;19;20011;-29
2022/12/23 07:01:35;;;;;;;;;;;12.70;99.90;;;;;;4593377;19;20033;-32
2022/12/23 07:03:08;;;;;;;24.40;19.83;;;12.70;99.90;;;;;;4592062;19;19947;-30
2022/12/23 07:04:40;;;;;;;24.83;19.60;;;12.70;99.90;;;;;;4593791;19;20046;-30
2022/12/23 07:06:11;;;;;;;25.05;20.98;;;12.70;99.90;;;;;;4593235;19;20011;-29
2022/12/23 07:07:43;;;;;;;21.50;18.63;;;12.70;99.90;;;;;;4592894;19;20022;-29
2022/12/23 07:09:14;;;;;;;22.77;19.05;;;12.70;99.90;;;;;;4594453;19;20345;-29
2022/12/23 07:10:45;;;;;;;24.95;19.17;;;12.70;99.90;;;;;;4593487;19;20077;-30
2022/12/23 07:12:17;;;;;;;22.70;18.57;;;12.70;99.90;;;;;;4593793;19;20022;-29
2022/12/23 07:13:49;;;;;;;25.00;19.58;;;12.70;99.90;;;;;;4593112;19;20019;-30
2022/12/23 07:15:20;;;;;;;;;;;12.70;99.90;;;;;;4593331;19;20018;-29
2022/12/23 07:16:51;;;;;;;23.93;19.87;;;12.70;99.90;;;;;;4593806;19;19922;-30
2022/12/23 07:18:22;;;;;;;22.45;19.27;;;12.70;99.90;;;;;;4593463;19;20011;-31
2022/12/23 07:19:54;;;;;;;25.17;21.17;;;12.70;99.90;;;;;;4592353;19;20006;-28
2022/12/23 07:21:25;;;;;;;24.35;19.85;;;12.70;99.90;;;;;;4591758;19;20014;-31
2022/12/23 07:22:56;;;;;;;24.45;19.38;;;12.70;99.90;;;;;;4594661;19;20015;-29
2022/12/23 07:24:27;;;;;;;24.77;20.95;;;12.70;99.90;;;;;;4592064;19;20015;-31
2022/12/23 07:25:59;;;;;;;29.17;21.27;;;12.70;99.90;;;;;;4592385;19;20014;-29
2022/12/23 07:27:30;;;;;;;29.08;23.70;;;12.70;99.90;;;;;;4594045;19;20017;-29
2022/12/23 07:29:03;;;;;;;30.33;22.88;;;12.70;99.90;;;;;;4591137;19;20031;-30
2022/12/23 07:30:34;;;;;;;30.30;23.43;;;12.70;99.90;;;;;;4593473;19;20010;-29
2022/12/23 07:32:06;;;;;;;25.77;20.92;;;12.70;99.90;;;;;;4592436;19;20022;-28
2022/12/23 07:33:37;;;;;;;23.58;19.45;;;12.70;99.90;;;;;;4593152;19;20021;-30
2022/12/23 07:35:08;;;;;;;;;;;12.70;99.90;;;;;;4593549;19;20018;-27
2022/12/23 07:36:39;;;;;;;23.73;20.17;;;12.70;99.90;;;;;;4591922;19;19925;-29
2022/12/23 07:38:10;;;;;;;22.63;19.77;;;12.70;99.90;;;;;;4592932;19;20471;-30
2022/12/23 07:39:42;;;;;;;23.63;20.35;;;12.70;99.90;;;;;;4593507;19;20011;-30
2022/12/23 07:41:13;;;;;;;24.95;19.77;;;12.70;99.90;;;;;;4594198;19;20022;-31
2022/12/23 07:42:48;;;;;;;24.35;19.63;;;12.70;99.90;;;;;;4591921;19;21548;-30
2022/12/23 07:44:19;;;;;;;24.30;20.07;;;12.70;99.90;;;;;;4593435;19;20020;-30
2022/12/23 07:45:50;;;;;;;22.45;18.30;;;12.70;99.90;;;;;;4592456;19;20010;-30
2022/12/23 07:47:22;;;;;;;23.02;18.30;;;12.70;99.90;;;;;;4593424;19;20014;-29
2022/12/23 07:48:54;;;;;;;22.98;19.30;;;12.70;99.90;;;;;;4590943;19;20593;-30
2022/12/23 07:50:25;;;;;;;24.77;19.92;;;12.70;99.90;;;;;;4591518;19;20014;-29
2022/12/23 07:51:56;;;;;;;24.90;20.58;;;12.70;99.90;;;;;;4592843;19;20434;-29
2022/12/23 07:53:28;;;;;;;24.75;20.33;;;12.70;99.90;;;;;;4591963;19;20026;-29
2022/12/23 07:54:59;;;;;;;26.15;21.25;;;12.70;99.90;;;;;;4592319;19;20046;-29
2022/12/23 07:56:30;;;;;;;26.38;20.70;;;12.70;99.90;;;;;;4591117;19;20599;-33
2022/12/23 07:58:02;;;;;;;27.45;21.15;;;12.80;99.90;;;;;;4592364;19;20109;-31
2022/12/23 07:59:33;;;;;;;27.85;23.27;;;12.90;99.90;;;;;;4591696;19;20025;-28
2022/12/23 08:01:06;;;;;;;28.55;22.98;;;12.90;99.90;;;;;;4590927;19;20017;-31
2022/12/23 08:02:38;;;;;;;28.23;23.30;;;12.90;99.90;;;;;;4591797;19;20014;-28
2022/12/23 08:04:09;;;;;;;27.58;22.23;;;13.00;99.90;;;;;;4590602;19;20030;-32
2022/12/23 08:05:41;;;;;;;30.02;23.83;;;13.10;99.90;;;;;;4592985;19;20011;-32
2022/12/23 08:07:12;;;;;;;30.88;25.58;;;13.10;99.90;;;;;;4591954;19;20051;-28
2022/12/23 08:08:44;;;;;;;28.23;24.05;;;13.20;99.90;;;;;;4592021;19;20409;-30
2022/12/23 08:10:16;;;;;;;27.00;23.17;;;13.20;99.90;;;;;;4592308;19;20528;-28
2022/12/23 08:11:47;;;;;;;27.98;22.67;;;13.20;99.90;;;;;;4592125;19;20384;-29
2022/12/23 08:13:18;;;;;;;33.28;21.88;;;13.30;99.90;;;;;;4591292;19;20019;-29
2022/12/23 08:14:51;;;;;;;25.92;21.17;;;13.30;99.90;;;;;;4592443;19;20034;-30
2022/12/23 08:16:23;;;;;;;28.30;22.80;;;13.30;99.90;;;;;;4590057;19;20030;-33
2022/12/23 08:17:55;;;;;;;27.58;22.13;;;13.20;99.90;;;;;;4591105;19;20018;-29
2022/12/23 08:19:26;;;;;;;28.00;23.43;;;13.30;99.90;;;;;;4592148;19;20011;-30
2022/12/23 08:20:59;;;;;;;29.38;22.02;;;13.30;99.90;;;;;;4591760;19;20031;-29
2022/12/23 08:22:30;;;;;;;26.33;21.67;;;13.20;99.90;;;;;;4591773;19;20006;-28
2022/12/23 08:24:02;;;;;;;28.55;21.73;;;13.30;99.90;;;;;;4591967;19;20018;-30
2022/12/23 08:25:33;;;;;;;27.38;22.50;;;13.20;99.90;;;;;;4591823;19;20426;-32
2022/12/23 08:27:04;;;;;;;27.70;22.50;;;13.20;99.90;;;;;;4591482;19;20006;-29
2022/12/23 08:28:36;;;;;;;28.98;22.63;;;13.20;99.90;;;;;;4589660;19;20014;-28